Weather at Austin Bergstrom International Airport

Public forecast

Using degrees Fahrenheit for public forecast. Weather courtesy of forecast.io.

Current aviation weather report (METAR) for Austin Bergstrom International Airport

Report is more than 6 hours old.

2022/11/14 14:53 (retrieved 2 years ago)

KAUS 141453Z 09006KT 10SM -DZ OVC021 10/06 A2997 RMK AO2 SLP152 P0000 60000 T01000061 56003

Aviation forecast (TAF) for Austin Bergstrom International Airport

Forecast is more than 12 hours old.

2023/02/22 18:30 (retrieved 1 year ago)

TAF KAUS 221727Z 2218/2324 23012G20KT P6SM FEW060 FEW250 FM222300 23006KT P6SM SKC FM230700 VRB04KT P6SM FEW010 FM231400 03010KT P6SM SKC